Time;durP1;ratioP1;P1;durP2;ratioP2;P2;SDS_P1;SDS_P2;PMS_P1;PMS_P2;Temp;Humidity;BMP_temperature;BMP_pressure;BME280_temperature;BME280_humidity;BME280_pressure;Samples;Min_cycle;Max_cycle;Signal;HPM_P1;HPM_P2
2022/12/29 08:09:01;;;;;;;5.15;0.93;;;19.70;99.70;;;;;;5244803;23;20331;-75
2022/12/29 08:11:28;;;;;;;3.72;0.65;;;19.70;99.90;;;;;;4919391;29;20699;-71
2022/12/29 08:13:55;;;;;;;5.57;0.80;;;19.70;99.90;;;;;;4919690;29;20209;-75
2022/12/29 08:16:21;;;;;;;5.75;1.08;;;19.70;99.90;;;;;;4920310;29;20208;-74
2022/12/29 08:18:48;;;;;;;3.85;0.90;;;19.80;99.90;;;;;;4919667;29;20217;-76
2022/12/29 08:21:15;;;;;;;5.10;0.95;;;19.70;99.90;;;;;;4919459;29;20208;-74
2022/12/29 08:23:42;;;;;;;4.70;0.82;;;19.80;99.90;;;;;;4919765;29;20218;-73
2022/12/29 08:26:11;;;;;;;5.32;0.75;;;19.80;99.90;;;;;;4920684;29;20209;-76
2022/12/29 08:28:38;;;;;;;12.85;1.23;;;19.80;99.70;;;;;;4922180;29;20228;-76
2022/12/29 08:31:05;;;;;;;10.95;3.15;;;19.70;99.60;;;;;;4922797;29;20209;-75
2022/12/29 08:33:31;;;;;;;12.77;4.22;;;19.70;99.70;;;;;;4920806;29;20216;-75
2022/12/29 08:36:01;;;;;;;24.77;5.00;;;19.70;99.80;;;;;;4919096;29;20224;-75
2022/12/29 08:38:28;;;;;;;18.33;4.72;;;19.80;99.60;;;;;;4918663;29;20248;-75
2022/12/29 08:40:55;;;;;;;13.82;4.13;;;19.80;99.70;;;;;;4918696;29;20601;-74
2022/12/29 08:43:23;;;;;;;15.77;4.25;;;19.80;99.40;;;;;;4918977;29;20204;-74
2022/12/29 08:45:50;;;;;;;15.18;4.13;;;19.80;99.20;;;;;;4918807;29;20549;-74
2022/12/29 08:48:19;;;;;;;12.55;4.47;;;19.80;99.00;;;;;;4918744;29;20228;-74
2022/12/29 08:50:46;;;;;;;20.45;4.60;;;19.80;98.90;;;;;;4918814;29;20299;-74
2022/12/29 08:53:13;;;;;;;19.73;4.63;;;19.80;98.80;;;;;;4918821;29;20205;-74
2022/12/29 08:55:40;;;;;;;15.85;4.20;;;19.80;98.70;;;;;;4918662;29;20201;-73
2022/12/29 08:58:07;;;;;;;19.40;4.13;;;19.80;98.70;;;;;;4919139;29;20231;-76
2022/12/29 09:00:35;;;;;;;24.38;5.00;;;19.80;98.70;;;;;;4922652;29;20216;-79
2022/12/29 09:03:02;;;;;;;30.33;5.47;;;19.90;98.60;;;;;;4923181;29;20208;-81
2022/12/29 09:05:29;;;;;;;22.08;4.80;;;19.70;98.40;;;;;;4919973;29;20259;-85
2022/12/29 09:07:56;;;;;;;21.52;4.50;;;19.70;98.40;;;;;;4920311;29;20232;-83
2022/12/29 09:10:23;;;;;;;20.55;4.53;;;19.80;98.50;;;;;;4920916;29;20217;-83
2022/12/29 09:12:50;;;;;;;19.65;4.40;;;19.60;99.50;;;;;;4921777;29;20269;-79
2022/12/29 09:15:17;;;;;;;17.17;4.60;;;19.80;97.50;;;;;;4919369;29;20216;-74
2022/12/29 09:17:45;;;;;;;25.17;4.63;;;19.70;96.50;;;;;;4918295;29;20239;-75
2022/12/29 09:20:13;;;;;;;13.90;4.28;;;19.80;96.60;;;;;;4918222;29;20203;-76
2022/12/29 09:22:41;;;;;;;15.65;3.65;;;19.80;96.30;;;;;;4918944;29;20243;-76
2022/12/29 09:25:09;;;;;;;27.15;4.50;;;19.80;96.00;;;;;;4918009;29;20208;-76
2022/12/29 09:27:36;;;;;;;11.80;3.67;;;19.80;95.50;;;;;;4917522;29;20726;-75
2022/12/29 09:30:03;;;;;;;13.95;3.88;;;19.90;95.60;;;;;;4917662;29;20221;-75
2022/12/29 09:32:30;;;;;;;15.15;3.22;;;19.80;95.50;;;;;;4918082;29;20212;-75
2022/12/29 09:34:58;;;;;;;13.18;3.72;;;19.80;95.40;;;;;;4917679;29;20561;-76
2022/12/29 09:37:25;;;;;;;10.13;3.78;;;19.80;95.30;;;;;;4917920;29;20236;-76
2022/12/29 09:39:51;;;;;;;14.45;3.60;;;19.80;95.60;;;;;;4917950;29;20208;-77
2022/12/29 09:42:24;;;;;;;11.50;3.65;;;19.70;95.20;;;;;;4917911;29;20209;-77
2022/12/29 09:45:09;;;;;;;24.45;3.50;;;19.70;95.10;;;;;;4917925;29;20200;-76
2022/12/29 09:47:36;;;;;;;14.98;3.78;;;19.70;95.10;;;;;;4917781;29;20236;-76
2022/12/29 09:50:11;;;;;;;22.10;3.78;;;19.70;95.10;;;;;;4917446;29;20805;-75
2022/12/29 09:52:44;;;;;;;12.65;3.22;;;19.70;94.90;;;;;;4917727;29;20224;-75
2022/12/29 09:55:14;;;;;;;17.88;3.40;;;19.70;94.90;;;;;;4917725;29;20196;-74
2022/12/29 09:57:46;;;;;;;7.18;3.00;;;19.70;94.90;;;;;;4918095;29;20228;-75
2022/12/29 10:00:16;;;;;;;17.75;3.67;;;19.70;94.80;;;;;;4917785;29;20256;-77
2022/12/29 10:02:45;;;;;;;15.05;3.30;;;19.70;94.70;;;;;;4917988;29;20200;-75
2022/12/29 10:05:26;;;;;;;14.40;3.65;;;19.70;95.00;;;;;;4917662;29;20211;-74
2022/12/29 10:08:04;;;;;;;14.23;3.65;;;19.70;95.10;;;;;;4917344;29;20769;-73
2022/12/29 10:10:39;;;;;;;26.08;4.65;;;19.70;95.10;;;;;;4917431;29;20247;-74
2022/12/29 10:13:21;;;;;;;23.15;5.35;;;19.70;95.50;;;;;;4917577;29;20192;-74
2022/12/29 10:15:57;;;;;;;30.55;4.53;;;19.80;95.20;;;;;;4917559;29;20197;-74
2022/12/29 10:18:42;;;;;;;19.13;5.60;;;19.70;95.20;;;;;;4917133;29;20232;-74
2022/12/29 10:21:23;;;;;;;19.27;4.95;;;19.80;95.20;;;;;;4917492;29;20248;-74
2022/12/29 10:23:52;;;;;;;27.67;5.35;;;19.80;95.20;;;;;;4917474;29;20193;-75
2022/12/29 10:26:22;;;;;;;35.53;4.72;;;19.80;95.80;;;;;;4917660;29;20185;-75
2022/12/29 10:28:52;;;;;;;19.33;5.00;;;19.90;96.30;;;;;;4917242;29;20232;-75
2022/12/29 10:31:22;;;;;;;23.15;5.13;;;19.80;96.40;;;;;;4917358;29;20208;-75
2022/12/29 10:33:52;;;;;;;19.52;4.47;;;19.90;96.40;;;;;;4917894;29;20189;-74
2022/12/29 10:36:33;;;;;;;30.30;5.10;;;19.80;96.60;;;;;;4917598;29;20669;-74
2022/12/29 10:39:08;;;;;;;25.52;4.88;;;19.90;96.70;;;;;;4917087;29;20700;-74
2022/12/29 10:41:40;;;;;;;17.65;4.30;;;19.90;97.30;;;;;;4921173;29;20559;-74
2022/12/29 10:44:13;;;;;;;35.72;5.43;;;19.90;97.40;;;;;;4920870;29;20645;-74
2022/12/29 10:46:40;;;;;;;26.25;5.05;;;19.90;97.60;;;;;;4922603;29;20564;-75
2022/12/29 10:49:13;;;;;;;22.45;4.30;;;19.90;97.70;;;;;;4921196;29;20229;-74
2022/12/29 10:51:45;;;;;;;26.13;5.55;;;19.80;98.00;;;;;;4921029;29;20533;-74
2022/12/29 10:54:17;;;;;;;22.10;4.68;;;19.90;98.40;;;;;;4921713;29;20193;-78
2022/12/29 10:56:47;;;;;;;22.15;4.28;;;19.80;98.80;;;;;;4922938;29;20193;-79
2022/12/29 10:59:19;;;;;;;18.38;4.45;;;19.90;99.00;;;;;;4926094;29;20224;-79
2022/12/29 11:01:55;;;;;;;23.15;4.13;;;19.90;99.30;;;;;;4925378;29;20201;-80
2022/12/29 11:04:43;;;;;;;21.20;4.45;;;20.20;99.60;;;;;;4924149;29;20201;-78
2022/12/29 11:07:12;;;;;;;17.00;3.50;;;20.20;99.80;;;;;;4922619;29;20209;-78
2022/12/29 11:09:41;;;;;;;14.85;3.97;;;19.90;99.80;;;;;;4920790;29;20223;-78
2022/12/29 11:12:21;;;;;;;18.60;3.95;;;19.90;99.90;;;;;;4921969;29;20189;-76
2022/12/29 11:15:01;;;;;;;21.35;4.28;;;19.80;99.90;;;;;;4921426;29;20240;-77
2022/12/29 11:17:27;;;;;;;16.92;4.18;;;19.80;99.90;;;;;;4920694;29;20224;-76
2022/12/29 11:19:54;;;;;;;12.68;3.45;;;19.70;99.90;;;;;;4920465;29;20573;-76
2022/12/29 11:22:25;;;;;;;18.27;3.97;;;19.70;99.90;;;;;;4920411;29;20201;-76
2022/12/29 11:24:53;;;;;;;11.85;3.60;;;19.70;99.90;;;;;;4920392;29;20189;-76
2022/12/29 11:27:23;;;;;;;15.13;3.85;;;19.70;99.90;;;;;;4920286;29;20592;-76
2022/12/29 11:29:50;;;;;;;17.23;3.67;;;19.70;99.90;;;;;;4920223;29;20237;-76
2022/12/29 11:32:20;;;;;;;14.23;3.55;;;19.60;99.90;;;;;;4920188;29;20208;-76
2022/12/29 11:34:48;;;;;;;14.23;3.38;;;19.60;99.90;;;;;;4922461;29;20212;-80
2022/12/29 11:37:18;;;;;;;11.13;3.47;;;19.70;99.90;;;;;;4925767;29;20721;-79
2022/12/29 11:39:53;;;;;;;12.02;3.47;;;19.60;99.90;;;;;;4921547;29;20189;-79
2022/12/29 11:42:24;;;;;;;8.40;3.17;;;19.60;99.90;;;;;;4922047;29;20193;-77
2022/12/29 11:44:52;;;;;;;19.92;3.25;;;19.60;99.90;;;;;;4920886;29;20185;-76
2022/12/29 11:47:29;;;;;;;20.98;3.72;;;19.60;99.90;;;;;;4923046;29;20220;-79
2022/12/29 11:49:59;;;;;;;15.70;3.60;;;19.70;99.90;;;;;;4921150;29;20212;-76
2022/12/29 11:52:30;;;;;;;30.67;3.30;;;19.70;99.90;;;;;;4919824;29;20205;-76
2022/12/29 11:55:00;;;;;;;14.73;3.80;;;19.80;99.90;;;;;;4923942;29;20189;-76
2022/12/29 11:57:28;;;;;;;24.85;4.43;;;20.00;99.90;;;;;;4921234;29;20229;-75
2022/12/29 11:59:56;;;;;;;36.85;4.18;;;20.10;99.90;;;;;;4919886;29;20208;-77
2022/12/29 12:02:43;;;;;;;15.27;4.13;;;20.20;99.90;;;;;;4920056;29;20668;-77
2022/12/29 12:05:22;;;;;;;17.63;4.72;;;20.20;99.90;;;;;;4919691;29;20220;-77
2022/12/29 12:07:53;;;;;;;19.15;4.20;;;20.30;99.90;;;;;;4919581;29;20232;-76
2022/12/29 12:10:27;;;;;;;15.20;3.30;;;20.50;99.90;;;;;;4919390;29;20221;-76
2022/12/29 12:13:02;;;;;;;15.15;3.42;;;20.50;99.90;;;;;;4919888;29;20192;-77
2022/12/29 12:15:37;;;;;;;17.20;3.90;;;20.60;99.90;;;;;;4921522;29;20640;-78
2022/12/29 12:18:10;;;;;;;20.10;4.03;;;20.60;99.90;;;;;;4925143;29;20283;-80
2022/12/29 12:20:46;;;;;;;16.00;4.07;;;20.70;99.90;;;;;;4921384;29;20217;-79
2022/12/29 12:23:29;;;;;;;17.77;3.92;;;20.70;99.90;;;;;;4920552;29;20192;-77
2022/12/29 12:26:04;;;;;;;21.65;3.90;;;20.70;99.90;;;;;;4920862;29;20252;-79
2022/12/29 12:28:38;;;;;;;23.40;6.88;;;20.70;99.90;;;;;;4943860;23;20228;-86
2022/12/29 12:31:14;;;;;;;36.80;9.15;;;20.80;99.90;;;;;;4920476;29;20208;-76
2022/12/29 12:33:45;;;;;;;33.50;9.00;;;20.90;99.90;;;;;;4919641;29;20196;-77
2022/12/29 12:36:26;;;;;;;30.63;9.02;;;21.00;99.90;;;;;;4923585;29;20189;-81
2022/12/29 12:38:56;;;;;;;32.13;10.07;;;21.30;99.90;;;;;;4931401;29;20229;-82
2022/12/29 12:41:38;;;;;;;21.35;9.32;;;21.70;99.90;;;;;;4934672;29;20201;-82
2022/12/29 12:44:11;;;;;;;34.03;10.07;;;21.00;99.90;;;;;;4932696;29;20197;-82
2022/12/29 12:47:04;;;;;;;26.38;10.18;;;21.10;99.90;;;;;;4930820;29;20189;-82
2022/12/29 12:50:09;;;;;;;19.60;8.98;;;21.00;99.90;;;;;;4929459;29;20225;-82
2022/12/29 12:52:50;;;;;;;32.63;8.65;;;21.10;99.90;;;;;;4922144;29;20201;-82
2022/12/29 12:55:32;;;;;;;23.55;8.77;;;21.00;99.90;;;;;;4919204;29;20212;-82
2022/12/29 12:58:08;;;;;;;20.73;8.13;;;21.10;99.90;;;;;;4918641;29;20236;-82
2022/12/29 13:00:43;;;;;;;27.33;7.95;;;21.00;99.80;;;;;;4919057;29;20189;-82
2022/12/29 13:03:14;;;;;;;22.15;7.88;;;21.00;99.40;;;;;;4929418;29;20192;-82
2022/12/29 13:05:57;;;;;;;19.55;7.55;;;21.00;99.10;;;;;;4930005;29;20189;-83
2022/12/29 13:08:55;;;;;;;25.55;7.85;;;21.00;98.80;;;;;;4934215;29;20221;-83
2022/12/29 13:11:30;;;;;;;22.52;7.45;;;21.10;98.20;;;;;;4931957;29;20220;-83
2022/12/29 13:14:08;;;;;;;18.52;6.55;;;21.00;97.90;;;;;;4930910;29;20195;-83
2022/12/29 13:16:42;;;;;;;19.13;6.15;;;21.00;97.60;;;;;;4928082;29;20200;-83
2022/12/29 13:19:15;;;;;;;21.05;6.72;;;21.10;97.20;;;;;;4930137;29;20229;-83
2022/12/29 13:21:56;;;;;;;15.95;5.88;;;21.10;97.00;;;;;;4929677;29;20193;-83
2022/12/29 13:24:31;;;;;;;20.58;6.35;;;21.30;96.60;;;;;;4928467;29;20645;-83
2022/12/29 13:27:05;;;;;;;23.77;5.78;;;21.20;96.50;;;;;;4928915;29;20189;-83
2022/12/29 13:29:37;;;;;;;22.08;5.55;;;21.10;96.20;;;;;;4928297;29;20209;-83
2022/12/29 13:32:22;;;;;;;11.68;4.70;;;21.10;95.90;;;;;;4928612;29;20194;-83
2022/12/29 13:35:01;;;;;;;14.05;5.03;;;21.20;95.90;;;;;;4928714;29;20189;-83
2022/12/29 13:37:30;;;;;;;15.88;4.70;;;21.10;95.50;;;;;;4925414;29;20231;-82
2022/12/29 13:40:02;;;;;;;13.63;5.10;;;21.10;95.30;;;;;;4921747;29;20205;-79
2022/12/29 13:42:29;;;;;;;23.05;4.93;;;21.10;95.10;;;;;;4918253;29;20664;-78
2022/12/29 13:45:02;;;;;;;14.90;5.03;;;21.20;94.80;;;;;;4918003;29;20621;-78
2022/12/29 13:47:35;;;;;;;14.27;4.30;;;21.20;94.60;;;;;;4917810;29;20779;-78
2022/12/29 13:50:05;;;;;;;13.98;4.68;;;21.20;94.60;;;;;;4918348;29;20217;-78
2022/12/29 13:52:39;;;;;;;13.85;4.63;;;21.20;94.50;;;;;;4917892;29;20204;-77
2022/12/29 13:55:21;;;;;;;16.58;4.47;;;21.20;94.80;;;;;;4917938;29;20192;-77
2022/12/29 13:57:54;;;;;;;9.25;5.15;;;21.20;94.90;;;;;;4917701;29;20259;-77
2022/12/29 14:00:24;;;;;;;10.73;3.90;;;21.10;94.60;;;;;;4917837;29;20217;-77
2022/12/29 14:03:24;;;;;;;14.13;4.75;;;21.30;98.90;;;;;;4917795;29;20192;-77
2022/12/29 14:06:06;;;;;;;9.23;3.63;;;21.20;92.90;;;;;;4914201;29;20548;-77
2022/12/29 14:08:35;;;;;;;9.30;3.95;;;21.20;92.70;;;;;;4918005;29;20235;-77
2022/12/29 14:11:08;;;;;;;10.02;3.47;;;21.20;92.50;;;;;;4918035;29;20252;-78
2022/12/29 14:13:39;;;;;;;9.23;3.45;;;21.20;92.20;;;;;;4917794;29;20197;-78
2022/12/29 14:16:11;;;;;;;12.10;3.72;;;21.20;92.20;;;;;;4917660;29;20220;-78
2022/12/29 14:18:44;;;;;;;5.38;3.38;;;21.20;91.90;;;;;;4917988;29;20233;-78
2022/12/29 14:21:22;;;;;;;10.60;3.95;;;21.30;91.80;;;;;;4918052;29;20189;-78
2022/12/29 14:23:53;;;;;;;6.63;3.55;;;21.30;91.60;;;;;;4917776;29;20193;-78
2022/12/29 14:26:35;;;;;;;4.60;3.13;;;21.30;91.40;;;;;;4917412;29;20664;-78
2022/12/29 14:29:37;;;;;;;6.20;2.67;;;21.20;91.10;;;;;;4917424;29;20284;-78
2022/12/29 14:32:36;;;;;;;10.88;3.92;;;21.30;91.00;;;;;;4918053;29;20243;-79
2022/12/29 14:35:38;;;;;;;7.30;3.15;;;21.30;90.60;;;;;;4918532;29;20185;-79
2022/12/29 14:38:18;;;;;;;5.75;2.97;;;21.30;90.90;;;;;;4918232;29;20228;-78
2022/12/29 14:40:46;;;;;;;12.48;3.20;;;21.30;90.80;;;;;;4918022;29;20637;-78
2022/12/29 14:43:15;;;;;;;9.60;3.00;;;21.30;90.80;;;;;;4918147;29;20220;-79
2022/12/29 14:45:43;;;;;;;8.38;3.00;;;21.50;90.90;;;;;;4918233;29;20227;-79
2022/12/29 14:48:41;;;;;;;12.77;2.88;;;21.30;91.00;;;;;;4918133;29;20591;-79
2022/12/29 14:51:29;;;;;;;12.43;3.00;;;21.30;91.00;;;;;;4918373;29;20225;-79
2022/12/29 14:53:56;;;;;;;15.40;3.22;;;21.30;91.40;;;;;;4918436;29;20193;-79
2022/12/29 14:56:26;;;;;;;15.73;3.38;;;21.40;93.30;;;;;;4918644;29;20209;-79
2022/12/29 14:58:55;;;;;;;22.02;3.72;;;21.30;92.40;;;;;;4918040;29;20232;-79
2022/12/29 15:01:40;;;;;;;8.27;3.20;;;21.60;91.70;;;;;;4918464;29;20256;-79
2022/12/29 15:04:18;;;;;;;6.55;2.80;;;21.50;91.50;;;;;;4918270;29;20190;-80
2022/12/29 15:06:45;;;;;;;4.25;2.70;;;21.40;90.00;;;;;;4918358;29;20189;-78
2022/12/29 15:09:24;;;;;;;10.27;2.78;;;21.30;90.10;;;;;;4917670;29;20229;-79
2022/12/29 15:11:53;;;;;;;5.55;2.80;;;21.40;90.80;;;;;;4917911;29;20205;-78
2022/12/29 15:14:32;;;;;;;8.45;2.78;;;21.40;88.90;;;;;;4919623;29;20699;-83
2022/12/29 15:16:59;;;;;;;9.05;3.05;;;21.50;87.60;;;;;;4919809;29;20200;-83
2022/12/29 15:19:29;;;;;;;7.75;2.83;;;22.00;88.20;;;;;;4919836;29;20212;-83
2022/12/29 15:21:57;;;;;;;11.05;2.75;;;21.40;87.50;;;;;;4920131;29;20205;-84
2022/12/29 15:24:25;;;;;;;16.65;2.95;;;21.40;87.40;;;;;;4920034;29;20689;-83
2022/12/29 15:26:55;;;;;;;13.63;3.25;;;21.60;87.80;;;;;;4922472;29;20216;-83
2022/12/29 15:29:38;;;;;;;9.30;3.42;;;21.40;87.70;;;;;;4921790;29;20703;-84
2022/12/29 15:32:19;;;;;;;12.23;2.72;;;21.30;87.60;;;;;;4922115;29;20216;-83
2022/12/29 15:34:49;;;;;;;9.52;2.85;;;21.40;87.70;;;;;;4922107;29;20185;-84
2022/12/29 15:37:19;;;;;;;14.38;3.25;;;21.40;87.60;;;;;;4922309;29;20225;-84
2022/12/29 15:39:48;;;;;;;12.77;2.80;;;21.40;87.80;;;;;;4924208;29;20222;-84
2022/12/29 15:42:30;;;;;;;9.45;2.67;;;21.60;88.10;;;;;;4921265;29;20257;-84
2022/12/29 15:44:57;;;;;;;15.27;2.70;;;21.50;87.30;;;;;;4921936;29;20221;-83
2022/12/29 15:47:28;;;;;;;14.35;2.25;;;21.50;88.50;;;;;;4921579;29;20232;-82
2022/12/29 15:50:03;;;;;;;12.70;2.70;;;21.40;89.50;;;;;;4921085;29;20201;-83
2022/12/29 15:52:31;;;;;;;9.55;2.10;;;21.50;91.20;;;;;;4921144;29;20199;-83
2022/12/29 15:54:59;;;;;;;6.88;2.38;;;21.50;86.80;;;;;;4920569;29;20572;-83
2022/12/29 15:57:28;;;;;;;10.43;2.78;;;21.40;86.80;;;;;;4920591;29;20229;-83
2022/12/29 15:59:55;;;;;;;6.60;2.33;;;22.00;87.60;;;;;;4920490;29;20224;-83
2022/12/29 16:02:23;;;;;;;7.53;2.60;;;21.50;87.10;;;;;;4920544;29;20212;-83
2022/12/29 16:04:51;;;;;;;11.38;2.72;;;21.40;87.40;;;;;;4920716;29;20256;-83
2022/12/29 16:07:27;;;;;;;7.82;3.05;;;21.40;87.70;;;;;;4920197;29;20649;-83
2022/12/29 16:09:59;;;;;;;5.40;2.50;;;21.40;87.80;;;;;;4920535;29;20200;-84
2022/12/29 16:12:31;;;;;;;9.23;2.50;;;21.80;88.90;;;;;;4921224;29;20232;-84
2022/12/29 16:15:01;;;;;;;3.55;2.30;;;21.70;90.60;;;;;;4922566;29;20578;-84
2022/12/29 16:17:30;;;;;;;10.50;2.60;;;21.40;87.40;;;;;;4923522;29;20231;-83
2022/12/29 16:19:59;;;;;;;3.35;2.63;;;21.40;89.70;;;;;;4923482;29;20212;-83
2022/12/29 16:22:32;;;;;;;9.43;2.83;;;21.40;86.00;;;;;;4923393;29;20201;-84
2022/12/29 16:25:01;;;;;;;7.57;2.30;;;21.40;86.10;;;;;;4922839;29;20189;-84
2022/12/29 16:27:33;;;;;;;6.97;3.03;;;21.40;86.20;;;;;;4923145;29;20233;-85
2022/12/29 16:30:06;;;;;;;5.18;2.45;;;21.40;86.40;;;;;;4927409;29;20204;-85
2022/12/29 16:32:35;;;;;;;7.18;2.58;;;21.50;86.80;;;;;;4926156;29;20196;-83
2022/12/29 16:35:13;;;;;;;5.85;2.40;;;21.40;88.00;;;;;;4925800;29;20264;-84
2022/12/29 16:37:41;;;;;;;6.00;2.30;;;21.50;87.70;;;;;;4925098;29;20225;-84
2022/12/29 16:40:27;;;;;;;9.82;2.20;;;21.70;85.70;;;;;;4926007;29;20216;-84
2022/12/29 16:42:57;;;;;;;5.97;2.35;;;21.50;85.20;;;;;;4920414;29;20633;-83
2022/12/29 16:46:07;;;;;;;16.42;2.88;;;21.40;85.20;;;;;;4921320;29;20303;-84
2022/12/29 16:48:36;;;;;;;30.40;3.95;;;21.30;84.30;;;;;;4921985;29;20247;-80
2022/12/29 16:51:05;;;;;;;31.67;4.15;;;21.50;85.30;;;;;;4921749;29;20221;-81
2022/12/29 16:53:37;;;;;;;20.67;3.72;;;21.50;85.30;;;;;;4921568;29;20208;-81
2022/12/29 16:56:09;;;;;;;21.00;4.50;;;21.60;85.40;;;;;;4921588;29;20189;-85
2022/12/29 16:58:36;;;;;;;31.80;4.47;;;21.40;85.20;;;;;;4921772;29;20623;-86
2022/12/29 17:01:06;;;;;;;35.10;4.55;;;21.80;86.50;;;;;;4924286;29;20205;-86
2022/12/29 17:03:36;;;;;;;30.92;4.15;;;21.30;86.20;;;;;;4926575;29;20196;-84
2022/12/29 17:06:04;;;;;;;32.90;4.82;;;21.20;86.70;;;;;;4919568;29;20197;-84
2022/12/29 17:08:40;;;;;;;26.15;4.03;;;21.30;87.20;;;;;;4919845;29;20220;-85
2022/12/29 17:14:05;;;;;;;19.50;3.15;;;21.20;86.30;;;;;;4921048;29;20229;-84
2022/12/29 17:16:32;;;;;;;21.83;3.90;;;21.30;87.60;;;;;;4919477;29;20212;-83
2022/12/29 17:18:59;;;;;;;16.55;2.80;;;21.10;85.50;;;;;;4920682;29;20232;-77
2022/12/29 17:21:26;;;;;;;17.35;3.60;;;21.00;85.60;;;;;;4920576;29;20208;-84
2022/12/29 17:23:54;;;;;;;11.98;2.78;;;20.90;86.10;;;;;;4919968;29;20204;-86
2022/12/29 17:26:20;;;;;;;21.63;3.30;;;20.90;87.10;;;;;;4919586;29;20236;-85
2022/12/29 17:28:47;;;;;;;19.25;2.90;;;21.10;89.80;;;;;;4918824;29;20668;-85
2022/12/29 17:31:14;;;;;;;15.05;2.88;;;20.90;86.20;;;;;;4919556;29;20244;-85
2022/12/29 17:33:42;;;;;;;17.17;3.38;;;21.00;88.20;;;;;;4920584;29;20211;-85
2022/12/29 17:36:11;;;;;;;14.48;2.45;;;20.80;87.10;;;;;;4920017;29;20300;-85
2022/12/29 17:38:38;;;;;;;16.13;3.20;;;20.80;87.30;;;;;;4918851;29;20232;-85
2022/12/29 17:41:12;;;;;;;16.08;3.08;;;20.70;88.20;;;;;;4919312;29;20201;-85
2022/12/29 17:43:40;;;;;;;12.60;2.90;;;21.00;88.90;;;;;;4918749;29;20185;-85
2022/12/29 17:46:07;;;;;;;14.32;2.83;;;21.20;90.40;;;;;;4918054;29;20673;-85
2022/12/29 17:48:34;;;;;;;10.60;2.30;;;20.50;90.90;;;;;;4917764;29;20247;-85
2022/12/29 17:51:02;;;;;;;18.60;3.53;;;20.50;86.60;;;;;;4917630;29;20220;-85
2022/12/29 17:53:30;;;;;;;14.75;2.83;;;20.40;86.80;;;;;;4918115;29;20215;-85
2022/12/29 17:55:57;;;;;;;10.35;2.78;;;20.80;87.70;;;;;;4917897;29;20696;-85
2022/12/29 17:58:27;;;;;;;9.07;2.03;;;20.40;87.30;;;;;;4917818;29;20225;-85
2022/12/29 18:00:55;;;;;;;8.13;2.67;;;20.40;87.30;;;;;;4917853;29;20216;-85
2022/12/29 18:03:27;;;;;;;10.77;2.40;;;20.70;88.00;;;;;;4918066;29;20212;-85
2022/12/29 18:05:54;;;;;;;10.00;2.72;;;20.50;87.60;;;;;;4917596;29;20200;-85
2022/12/29 18:08:21;;;;;;;11.75;2.88;;;20.20;87.70;;;;;;4917469;29;20592;-85
2022/12/29 18:10:50;;;;;;;8.23;2.17;;;20.30;88.50;;;;;;4918662;29;20245;-85
2022/12/29 18:13:21;;;;;;;10.85;2.30;;;21.20;88.90;;;;;;4919515;29;20269;-85
2022/12/29 18:15:49;;;;;;;12.05;2.47;;;20.60;88.40;;;;;;4918829;29;20188;-85
2022/12/29 18:18:18;;;;;;;9.77;2.13;;;20.20;88.70;;;;;;4918118;29;20231;-85
2022/12/29 18:20:45;;;;;;;20.30;3.08;;;21.00;89.50;;;;;;4918021;29;20211;-85
2022/12/29 18:23:19;;;;;;;18.83;2.65;;;20.40;88.70;;;;;;4918445;29;20204;-85
2022/12/29 18:25:49;;;;;;;13.63;2.60;;;21.10;89.30;;;;;;4918462;29;20240;-85
2022/12/29 18:28:15;;;;;;;12.25;2.80;;;20.30;89.10;;;;;;4942109;23;20232;-78
2022/12/29 18:30:42;;;;;;;12.02;2.50;;;20.40;89.70;;;;;;4920028;29;20216;-76
2022/12/29 18:33:14;;;;;;;10.25;2.58;;;20.50;90.00;;;;;;4918523;29;20237;-76
2022/12/29 18:35:45;;;;;;;13.32;2.17;;;20.70;90.30;;;;;;4917552;29;20667;-74
2022/12/29 18:38:11;;;;;;;2.58;1.63;;;20.50;90.30;;;;;;4917480;29;20231;-75
2022/12/29 18:40:38;;;;;;;10.48;2.65;;;20.50;90.60;;;;;;4917857;29;20227;-75
2022/12/29 18:43:06;;;;;;;7.68;1.90;;;20.40;90.80;;;;;;4917770;29;20201;-75
2022/12/29 18:45:34;;;;;;;7.68;2.50;;;20.40;90.80;;;;;;4918095;29;20212;-75
2022/12/29 18:48:01;;;;;;;17.35;2.65;;;20.40;91.10;;;;;;4918076;29;20592;-75
2022/12/29 18:50:29;;;;;;;16.17;3.08;;;20.30;91.30;;;;;;4917765;29;20201;-75
2022/12/29 18:52:55;;;;;;;9.52;2.67;;;20.30;91.40;;;;;;4917543;29;20228;-76
2022/12/29 18:55:24;;;;;;;13.00;2.50;;;20.30;91.40;;;;;;4917445;29;20209;-76
2022/12/29 18:57:51;;;;;;;12.45;2.75;;;20.40;91.40;;;;;;4919002;29;20229;-75
2022/12/29 19:00:20;;;;;;;6.55;2.05;;;20.30;91.60;;;;;;4919285;29;20209;-77
2022/12/29 19:02:48;;;;;;;13.77;2.10;;;20.40;91.80;;;;;;4922108;29;20201;-77
2022/12/29 19:05:21;;;;;;;7.95;2.08;;;20.50;92.00;;;;;;4923913;29;20205;-77
2022/12/29 19:07:49;;;;;;;9.27;2.10;;;20.40;92.10;;;;;;4923790;29;20247;-74
2022/12/29 19:10:16;;;;;;;8.15;1.80;;;20.40;92.60;;;;;;4923521;29;20696;-73
2022/12/29 19:12:43;;;;;;;10.25;2.00;;;20.40;92.80;;;;;;4922919;29;20225;-73
2022/12/29 19:15:19;;;;;;;14.68;2.17;;;20.50;93.00;;;;;;4923035;29;20220;-73
2022/12/29 19:17:46;;;;;;;10.68;1.83;;;20.60;93.10;;;;;;4923289;29;20595;-74
2022/12/29 19:20:25;;;;;;;9.90;2.10;;;20.60;93.50;;;;;;4923318;29;20208;-74
2022/12/29 19:22:54;;;;;;;13.55;2.30;;;20.60;93.60;;;;;;4923658;29;20189;-74
2022/12/29 19:25:20;;;;;;;8.18;1.67;;;20.60;93.90;;;;;;4923305;29;20201;-74
2022/12/29 19:27:47;;;;;;;6.95;2.03;;;20.60;94.20;;;;;;4922975;29;20241;-73
2022/12/29 19:30:14;;;;;;;4.00;1.60;;;20.60;94.40;;;;;;4922744;29;20244;-74
2022/12/29 19:32:41;;;;;;;7.32;1.90;;;20.60;94.70;;;;;;4921127;29;20233;-75
2022/12/29 19:35:09;;;;;;;6.07;2.00;;;20.60;95.60;;;;;;4920585;29;20568;-75
2022/12/29 19:37:38;;;;;;;11.00;2.45;;;20.50;96.20;;;;;;4920869;29;20229;-75
2022/12/29 19:40:09;;;;;;;8.43;2.08;;;20.60;96.70;;;;;;4920600;29;20628;-75
2022/12/29 19:42:35;;;;;;;9.65;2.10;;;20.50;93.40;;;;;;4920213;29;20648;-76
2022/12/29 19:45:03;;;;;;;4.32;1.90;;;20.50;94.60;;;;;;4920401;29;20209;-75
2022/12/29 19:47:30;;;;;;;6.90;1.52;;;20.40;95.80;;;;;;4920750;29;20231;-74
2022/12/29 19:49:57;;;;;;;3.83;1.70;;;20.40;93.90;;;;;;4922475;29;20236;-73
2022/12/29 19:52:25;;;;;;;9.80;1.77;;;20.50;94.30;;;;;;4923774;29;20220;-75
2022/12/29 19:54:52;;;;;;;6.53;1.42;;;20.40;94.80;;;;;;4924064;29;20695;-76
2022/12/29 19:57:22;;;;;;;4.82;1.45;;;20.40;95.50;;;;;;4925346;29;20229;-76
2022/12/29 19:59:49;;;;;;;8.20;1.90;;;20.30;94.90;;;;;;4923555;29;20215;-73
2022/12/29 20:02:19;;;;;;;3.55;1.50;;;20.40;95.70;;;;;;4923223;29;20197;-74
2022/12/29 20:04:45;;;;;;;7.82;1.80;;;20.40;93.60;;;;;;4921641;29;20205;-77
2022/12/29 20:07:12;;;;;;;2.47;1.20;;;20.40;94.30;;;;;;4919915;29;20212;-77
2022/12/29 20:09:39;;;;;;;9.27;1.55;;;20.50;95.50;;;;;;4919926;29;20212;-78
2022/12/29 20:12:06;;;;;;;6.72;2.17;;;20.40;95.20;;;;;;4918949;29;20250;-78
2022/12/29 20:14:34;;;;;;;8.30;2.00;;;20.40;95.40;;;;;;4920737;29;20260;-78
2022/12/29 20:17:01;;;;;;;7.63;1.90;;;19.90;96.60;;;;;;4920334;29;20656;-77
2022/12/29 20:19:29;;;;;;;11.40;1.85;;;20.40;95.50;;;;;;4921084;29;20205;-78
2022/12/29 20:21:56;;;;;;;10.75;1.63;;;20.30;95.50;;;;;;4920293;29;20197;-77
2022/12/29 20:24:22;;;;;;;8.38;1.30;;;20.20;95.40;;;;;;4919531;29;20616;-77
2022/12/29 20:26:51;;;;;;;3.00;1.33;;;20.20;95.40;;;;;;4919399;29;20268;-77
2022/12/29 20:29:18;;;;;;;4.18;1.33;;;20.20;95.50;;;;;;4919207;29;20280;-77
2022/12/29 20:31:47;;;;;;;5.40;1.40;;;20.20;95.50;;;;;;4920230;29;20225;-78
2022/12/29 20:34:14;;;;;;;2.22;1.30;;;20.20;95.70;;;;;;4920842;29;20204;-78
2022/12/29 20:36:43;;;;;;;3.83;1.42;;;20.10;95.90;;;;;;4919441;29;20211;-77
2022/12/29 20:39:14;;;;;;;5.55;1.50;;;20.20;96.20;;;;;;4920825;29;20308;-78
2022/12/29 20:41:41;;;;;;;5.53;1.80;;;20.20;96.50;;;;;;4920923;29;20193;-77
2022/12/29 20:44:08;;;;;;;4.95;1.35;;;20.30;96.50;;;;;;4918743;29;20561;-77
2022/12/29 20:46:35;;;;;;;12.00;1.77;;;20.30;96.40;;;;;;4918990;29;20227;-77
2022/12/29 20:49:03;;;;;;;4.60;1.50;;;20.30;96.40;;;;;;4918875;29;20232;-77
2022/12/29 20:51:30;;;;;;;5.50;1.88;;;20.20;96.30;;;;;;4918848;29;20221;-77
2022/12/29 20:53:57;;;;;;;8.45;1.63;;;20.30;96.50;;;;;;4918569;29;20208;-77
2022/12/29 20:56:25;;;;;;;6.72;1.48;;;20.30;96.50;;;;;;4918817;29;20237;-77
2022/12/29 20:58:53;;;;;;;5.47;1.65;;;20.20;96.50;;;;;;4918447;29;20720;-77
2022/12/29 21:01:22;;;;;;;7.38;1.75;;;20.20;96.60;;;;;;4918745;29;20205;-77
2022/12/29 21:03:49;;;;;;;7.13;1.20;;;20.20;96.60;;;;;;4918645;29;20201;-77
2022/12/29 21:06:18;;;;;;;3.95;1.50;;;20.20;96.70;;;;;;4918621;29;20208;-77
2022/12/29 21:08:45;;;;;;;4.47;1.10;;;20.20;96.80;;;;;;4918503;29;20221;-77
2022/12/29 21:11:12;;;;;;;7.75;1.48;;;20.20;96.70;;;;;;4918520;29;20220;-77
2022/12/29 21:13:39;;;;;;;4.10;1.42;;;20.20;96.80;;;;;;4918497;29;20220;-77